ěÝzenÝ letovÚho provozu ╚eskÚ republiky
Letiste: LKMT Aktualizace: 14.06.2021 00:30:26  UTC
 METAR LKMT 14.06. 00:30 ...
METAR LKMT 140030Z VRB02KT CAVOK 08/06 Q1024 NOSIG RMK REG QNH 1022=
 TAF LKMT 13.06. 23:00 ...
TAF LKMT 132300Z 1400/1506 VRB02KT CAVOK      BECMG 1406/1408 01008KT=